Time;durP1;ratioP1;P1;durP2;ratioP2;P2;SDS_P1;SDS_P2;PMS_P1;PMS_P2;Temp;Humidity;BMP_temperature;BMP_pressure;BME280_temperature;BME280_humidity;BME280_pressure;Samples;Min_cycle;Max_cycle;Signal;HPM_P1;HPM_P2
2022/07/02 00:00:59;;;;;;;6.00;4.40;;;13.10;99.90;;;;;;4989004;28;20179;-82
2022/07/02 00:03:33;;;;;;;6.80;4.20;;;13.00;99.90;;;;;;5000899;28;20222;-82
2022/07/02 00:06:01;;;;;;;5.95;4.28;;;13.00;99.90;;;;;;4998144;28;20438;-81
2022/07/02 00:08:28;;;;;;;5.20;3.75;;;12.90;99.90;;;;;;4985586;28;20199;-83
2022/07/02 00:10:55;;;;;;;5.22;4.13;;;12.90;99.90;;;;;;4992462;28;20255;-82
2022/07/02 00:13:22;;;;;;;9.48;3.60;;;12.90;99.90;;;;;;4987239;28;20227;-84
2022/07/02 00:15:48;;;;;;;6.47;3.50;;;12.90;99.90;;;;;;4983685;28;20179;-83
2022/07/02 00:18:14;;;;;;;5.97;4.23;;;12.80;99.90;;;;;;4992906;28;20198;-81
2022/07/02 00:20:42;;;;;;;5.22;3.60;;;12.90;99.90;;;;;;4986705;28;20187;-82
2022/07/02 00:23:08;;;;;;;7.50;4.55;;;12.60;99.90;;;;;;4981207;28;20237;-82
2022/07/02 00:25:39;;;;;;;5.40;4.60;;;12.60;99.90;;;;;;4969698;28;20774;-84
2022/07/02 00:28:11;;;;;;;3.88;3.20;;;12.70;99.90;;;;;;4967000;28;20337;-84
2022/07/02 00:30:38;;;;;;;5.10;4.38;;;12.80;99.90;;;;;;4977010;28;20238;-82
2022/07/02 00:33:04;;;;;;;5.30;4.55;;;12.70;99.90;;;;;;4979687;28;20235;-82
2022/07/02 00:35:30;;;;;;;8.37;5.07;;;12.60;99.90;;;;;;4985725;28;20221;-83
2022/07/02 00:37:56;;;;;;;8.97;4.07;;;12.70;99.90;;;;;;4979487;28;20191;-80
2022/07/02 00:40:23;;;;;;;6.03;4.50;;;12.70;99.90;;;;;;4972599;28;20434;-83
2022/07/02 00:42:48;;;;;;;12.52;4.35;;;12.70;99.90;;;;;;4977557;28;20881;-82
2022/07/02 00:45:16;;;;;;;5.73;4.03;;;12.70;99.90;;;;;;4979427;28;20183;-82
2022/07/02 00:47:43;;;;;;;8.55;4.25;;;12.70;99.90;;;;;;4981169;28;20210;-81
2022/07/02 00:50:09;;;;;;;7.63;4.68;;;12.70;99.90;;;;;;4979082;28;20262;-80
2022/07/02 00:52:35;;;;;;;4.60;3.50;;;12.70;99.90;;;;;;4972191;28;20695;-82
2022/07/02 00:55:00;;;;;;;6.63;4.20;;;12.70;99.90;;;;;;4968663;28;20257;-81
2022/07/02 00:57:26;;;;;;;5.70;3.93;;;12.60;99.90;;;;;;4982352;28;20222;-82
2022/07/02 00:59:51;;;;;;;6.00;4.20;;;12.70;99.90;;;;;;4973405;28;20422;-81
2022/07/02 01:02:22;;;;;;;6.20;4.40;;;12.60;99.90;;;;;;4972268;28;20190;-81
2022/07/02 01:04:49;;;;;;;6.03;4.65;;;12.60;99.90;;;;;;4973332;28;20187;-82
2022/07/02 01:07:15;;;;;;;6.78;4.63;;;12.60;99.90;;;;;;4974071;28;20279;-83
2022/07/02 01:12:31;;;;;;;6.05;5.45;;;12.50;99.90;;;;;;4978762;28;20268;-81
2022/07/02 01:14:57;;;;;;;7.00;5.30;;;12.50;99.90;;;;;;4976972;28;20178;-81
2022/07/02 01:17:23;;;;;;;10.93;6.20;;;12.50;99.90;;;;;;4973410;28;20274;-82
2022/07/02 01:19:49;;;;;;;6.82;4.80;;;12.40;99.90;;;;;;4974939;28;20210;-80
2022/07/02 01:22:31;;;;;;;7.40;5.27;;;12.50;99.90;;;;;;4971488;28;20191;-83
2022/07/02 01:24:56;;;;;;;6.90;4.32;;;12.40;99.90;;;;;;4976312;28;21398;-81
2022/07/02 01:27:23;;;;;;;6.50;4.50;;;12.40;99.90;;;;;;4973292;28;20186;-83
2022/07/02 01:29:49;;;;;;;7.45;5.28;;;12.40;99.90;;;;;;4975689;28;20179;-82
2022/07/02 01:32:15;;;;;;;8.57;5.03;;;12.40;99.90;;;;;;4979190;28;20632;-83
2022/07/02 01:34:50;;;;;;;6.90;5.00;;;12.30;99.90;;;;;;4977395;28;20678;-84
2022/07/02 01:37:19;;;;;;;7.15;5.30;;;12.10;99.90;;;;;;4975933;28;20441;-82
2022/07/02 01:39:45;;;;;;;8.10;4.97;;;12.00;99.90;;;;;;4997419;28;20218;-83
2022/07/02 01:42:11;;;;;;;7.70;5.50;;;12.00;99.90;;;;;;4993049;28;20183;-82
2022/07/02 01:44:38;;;;;;;6.40;4.80;;;12.00;99.90;;;;;;4981480;28;20187;-81
2022/07/02 01:47:06;;;;;;;8.98;5.63;;;12.00;99.90;;;;;;5002270;28;20179;-82
2022/07/02 01:49:32;;;;;;;8.25;5.35;;;11.90;99.90;;;;;;4984768;28;20253;-84
2022/07/02 01:51:58;;;;;;;13.57;5.00;;;11.80;99.90;;;;;;4982778;28;20564;-82
2022/07/02 01:54:23;;;;;;;12.30;5.77;;;11.80;99.90;;;;;;4980820;28;20210;-82
2022/07/02 01:56:49;;;;;;;6.83;5.20;;;11.70;99.90;;;;;;4992803;28;20265;-84
2022/07/02 01:59:15;;;;;;;6.10;5.00;;;11.70;99.90;;;;;;4975762;28;20233;-84
2022/07/02 02:01:41;;;;;;;9.67;6.53;;;11.70;99.90;;;;;;4976895;28;20213;-83
2022/07/02 02:04:07;;;;;;;6.57;5.10;;;11.60;99.90;;;;;;4973154;28;20211;-83
2022/07/02 02:06:33;;;;;;;7.68;4.78;;;11.60;99.90;;;;;;4978173;28;20187;-82
2022/07/02 02:11:26;;;;;;;9.27;5.10;;;11.60;99.90;;;;;;5019654;28;20216;-83
2022/07/02 02:13:52;;;;;;;5.90;5.30;;;11.60;99.90;;;;;;5022735;28;20188;-81
2022/07/02 02:16:18;;;;;;;8.90;5.30;;;11.60;99.90;;;;;;5028340;28;20281;-82
2022/07/02 02:18:43;;;;;;;6.53;4.33;;;11.60;99.90;;;;;;5021591;28;20244;-83
2022/07/02 02:21:09;;;;;;;5.80;4.33;;;11.70;99.90;;;;;;5007694;28;20188;-82
2022/07/02 02:23:34;;;;;;;9.23;5.23;;;11.70;99.90;;;;;;5011463;28;20204;-82
2022/07/02 02:26:00;;;;;;;7.20;3.73;;;11.70;99.90;;;;;;5009859;28;20723;-83
2022/07/02 02:28:26;;;;;;;7.80;5.27;;;11.70;99.90;;;;;;5010068;28;20208;-80
2022/07/02 02:30:51;;;;;;;7.27;4.63;;;11.70;99.90;;;;;;5005304;28;20209;-82
2022/07/02 02:33:17;;;;;;;6.40;4.03;;;11.70;99.90;;;;;;5025742;28;20193;-83
2022/07/02 02:35:42;;;;;;;13.13;6.20;;;11.70;99.90;;;;;;5011399;28;20186;-82
2022/07/02 02:38:08;;;;;;;8.50;4.20;;;11.60;99.90;;;;;;5017850;28;20205;-81
2022/07/02 02:40:33;;;;;;;6.63;3.73;;;11.60;99.90;;;;;;5015190;28;20233;-82
2022/07/02 02:42:59;;;;;;;6.93;3.80;;;11.60;99.90;;;;;;5009278;28;20194;-82
2022/07/02 02:45:25;;;;;;;8.03;3.93;;;11.60;99.90;;;;;;5009544;28;20205;-82
2022/07/02 02:47:50;;;;;;;4.90;4.30;;;11.60;99.90;;;;;;5016198;28;20292;-80
2022/07/02 02:50:16;;;;;;;6.20;4.03;;;11.50;99.90;;;;;;5027245;28;20205;-80
2022/07/02 02:52:41;;;;;;;10.03;4.07;;;11.50;99.90;;;;;;5025430;28;20194;-80
2022/07/02 02:55:07;;;;;;;11.53;4.00;;;11.50;99.90;;;;;;5030617;28;20194;-81
2022/07/02 02:57:32;;;;;;;6.00;4.30;;;11.50;99.90;;;;;;5013807;28;20268;-81
2022/07/02 02:59:58;;;;;;;5.73;4.30;;;11.40;99.90;;;;;;5017654;28;20681;-79
2022/07/02 03:02:23;;;;;;;7.67;3.67;;;11.50;99.90;;;;;;5028625;28;20589;-80
2022/07/02 03:04:49;;;;;;;7.37;4.00;;;11.50;99.90;;;;;;5022265;28;20205;-81
2022/07/02 03:07:15;;;;;;;6.10;3.72;;;11.50;99.90;;;;;;5012293;28;21659;-82
2022/07/02 03:09:41;;;;;;;4.80;3.90;;;11.50;99.90;;;;;;5015792;28;20221;-81
2022/07/02 03:12:07;;;;;;;7.13;3.63;;;11.50;99.90;;;;;;5029273;28;20199;-83
2022/07/02 03:14:33;;;;;;;6.30;4.15;;;11.60;99.90;;;;;;5034706;28;20205;-79
2022/07/02 03:16:58;;;;;;;4.77;4.17;;;11.60;99.90;;;;;;5023992;28;20571;-82
2022/07/02 03:19:24;;;;;;;9.70;4.93;;;11.70;99.90;;;;;;5022152;28;20613;-81
2022/07/02 03:21:50;;;;;;;8.80;6.27;;;11.70;99.90;;;;;;5014453;28;20186;-81
2022/07/02 03:24:15;;;;;;;12.10;5.80;;;11.60;99.90;;;;;;5006910;28;20192;-82
2022/07/02 03:26:41;;;;;;;8.67;6.67;;;11.60;99.90;;;;;;5013426;28;20186;-82
2022/07/02 03:29:07;;;;;;;9.23;6.47;;;11.60;99.90;;;;;;5009218;28;20213;-83
2022/07/02 03:31:33;;;;;;;9.07;6.37;;;11.70;99.90;;;;;;5007753;28;20617;-81
2022/07/02 03:33:58;;;;;;;6.90;3.83;;;11.60;99.90;;;;;;5009128;28;20209;-81
2022/07/02 03:36:24;;;;;;;5.93;4.40;;;11.70;99.90;;;;;;5016359;28;20190;-81
2022/07/02 03:38:50;;;;;;;8.20;5.13;;;11.70;99.90;;;;;;5012307;28;20565;-83
2022/07/02 03:41:15;;;;;;;7.13;4.90;;;11.70;99.90;;;;;;5025042;28;20777;-82
2022/07/02 03:43:41;;;;;;;8.57;6.13;;;11.80;99.90;;;;;;5029233;28;20832;-83
2022/07/02 03:46:07;;;;;;;13.83;6.20;;;11.90;99.90;;;;;;5006423;28;20189;-82
2022/07/02 03:48:32;;;;;;;5.50;4.23;;;11.90;99.90;;;;;;5003188;28;20517;-82
2022/07/02 03:50:58;;;;;;;6.53;4.53;;;11.90;99.90;;;;;;5005149;28;21241;-83
2022/07/02 03:53:23;;;;;;;12.93;2.90;;;12.00;99.90;;;;;;5006818;28;20933;-84
2022/07/02 03:55:49;;;;;;;6.20;3.63;;;12.00;99.90;;;;;;5013831;28;20285;-82
2022/07/02 03:58:14;;;;;;;10.80;4.87;;;12.00;99.90;;;;;;5013415;28;20183;-82
2022/07/02 04:00:40;;;;;;;9.03;6.97;;;12.00;99.90;;;;;;5007409;28;20325;-81
2022/07/02 04:03:06;;;;;;;13.33;6.63;;;12.00;99.90;;;;;;5028268;28;20197;-82
2022/07/02 04:05:31;;;;;;;12.00;6.67;;;12.10;99.90;;;;;;5017780;28;20179;-81
2022/07/02 04:07:57;;;;;;;12.80;8.10;;;12.20;99.90;;;;;;5009337;28;20210;-83
2022/07/02 04:10:22;;;;;;;11.20;9.17;;;12.20;99.90;;;;;;5012014;28;20259;-83
2022/07/02 04:12:48;;;;;;;16.60;9.57;;;12.20;99.90;;;;;;5013772;28;20186;-80
2022/07/02 04:15:14;;;;;;;11.07;8.60;;;12.20;99.90;;;;;;5010809;28;20189;-83
2022/07/02 04:17:39;;;;;;;14.53;9.77;;;12.20;99.90;;;;;;5009259;28;20436;-81
2022/07/02 04:20:05;;;;;;;20.10;10.73;;;12.40;99.90;;;;;;5005053;28;21890;-83
2022/07/02 04:22:31;;;;;;;9.45;6.90;;;14.20;99.90;;;;;;5005398;28;20448;-84
2022/07/02 04:24:56;;;;;;;6.53;5.33;;;16.10;99.90;;;;;;5007481;28;20190;-83
2022/07/02 04:27:22;;;;;;;6.23;4.17;;;18.20;99.90;;;;;;5012646;28;20179;-83
2022/07/02 04:29:47;;;;;;;4.80;4.30;;;20.10;99.90;;;;;;5008028;28;21141;-83
2022/07/02 04:32:14;;;;;;;4.07;3.20;;;22.20;99.90;;;;;;5006517;28;20181;-84
2022/07/02 04:34:39;;;;;;;5.20;3.27;;;23.80;99.90;;;;;;5009789;28;20552;-83
2022/07/02 04:37:05;;;;;;;5.93;4.17;;;24.90;99.90;;;;;;5011403;28;20433;-82
2022/07/02 04:39:31;;;;;;;4.80;3.80;;;25.90;99.90;;;;;;5025771;28;20203;-82
2022/07/02 04:41:57;;;;;;;5.13;3.07;;;27.50;99.90;;;;;;5054311;28;20221;-81
2022/07/02 04:44:24;;;;;;;4.60;3.20;;;28.80;99.90;;;;;;5029343;28;20189;-83
2022/07/02 04:46:49;;;;;;;4.90;3.07;;;29.50;99.90;;;;;;5035516;28;20459;-83
2022/07/02 04:49:15;;;;;;;4.07;3.30;;;30.60;99.90;;;;;;5030315;28;20477;-84
2022/07/02 04:51:40;;;;;;;4.83;3.47;;;31.90;97.10;;;;;;5017630;28;20181;-82
2022/07/02 04:54:06;;;;;;;4.50;3.10;;;33.10;90.80;;;;;;5017794;28;20188;-84
2022/07/02 04:56:32;;;;;;;8.93;3.60;;;34.10;82.80;;;;;;5014497;28;20232;-83
2022/07/02 04:58:57;;;;;;;4.27;3.00;;;34.80;77.00;;;;;;5007938;28;20208;-84
2022/07/02 05:01:28;;;;;;;4.80;3.37;;;34.60;68.50;;;;;;5008411;28;20185;-83
2022/07/02 05:03:54;;;;;;;3.30;3.00;;;33.30;68.80;;;;;;5027155;28;20202;-84
2022/07/02 05:06:21;;;;;;;22.17;3.70;;;33.00;68.30;;;;;;5025264;28;20444;-85
2022/07/02 05:08:50;;;;;;;4.47;4.07;;;33.80;70.10;;;;;;5008995;28;20462;-84
2022/07/02 05:11:16;;;;;;;6.00;3.30;;;34.30;65.70;;;;;;5008013;28;20448;-83
2022/07/02 05:13:43;;;;;;;9.47;4.60;;;34.90;63.90;;;;;;5010666;28;22049;-84
2022/07/02 05:16:09;;;;;;;5.23;4.57;;;34.20;62.60;;;;;;5012920;28;20435;-86
2022/07/02 05:18:34;;;;;;;8.43;3.80;;;34.30;60.60;;;;;;5007857;28;20491;-84
2022/07/02 05:21:00;;;;;;;5.80;4.40;;;35.50;61.60;;;;;;5003463;28;20214;-84
2022/07/02 05:23:25;;;;;;;7.03;4.53;;;36.60;58.20;;;;;;5003692;28;20190;-84
2022/07/02 05:25:51;;;;;;;13.70;4.80;;;36.40;55.80;;;;;;5005672;28;20191;-85
2022/07/02 05:28:16;;;;;;;9.63;5.27;;;36.00;56.80;;;;;;5000778;28;20601;-84
2022/07/02 05:30:42;;;;;;;7.90;5.50;;;35.80;55.80;;;;;;5006273;28;20210;-85
2022/07/02 05:33:08;;;;;;;6.77;5.70;;;36.40;56.20;;;;;;5009458;28;20741;-84
2022/07/02 05:35:33;;;;;;;9.40;6.03;;;37.20;55.30;;;;;;5015575;28;20489;-85
2022/07/02 05:37:59;;;;;;;7.20;6.60;;;38.10;53.40;;;;;;5029648;28;20280;-81
2022/07/02 05:40:24;;;;;;;10.23;7.40;;;38.70;51.80;;;;;;5023602;28;20310;-82
2022/07/02 05:42:50;;;;;;;8.30;7.50;;;38.60;50.30;;;;;;5019608;28;20195;-85
2022/07/02 05:45:16;;;;;;;9.73;8.17;;;37.60;51.70;;;;;;5010118;28;20194;-84
2022/07/02 05:47:42;;;;;;;8.20;7.50;;;37.40;52.80;;;;;;5013320;28;20211;-82
2022/07/02 05:50:08;;;;;;;10.37;8.13;;;38.10;51.30;;;;;;5012644;28;20559;-85
2022/07/02 05:52:34;;;;;;;8.97;8.27;;;39.10;50.90;;;;;;5012515;28;20436;-86
2022/07/02 05:54:59;;;;;;;10.80;8.77;;;39.80;50.80;;;;;;5008186;28;20496;-83
2022/07/02 05:57:25;;;;;;;9.63;8.83;;;40.10;48.90;;;;;;5012289;28;20185;-85
2022/07/02 05:59:51;;;;;;;10.23;9.43;;;41.30;48.10;;;;;;5025338;28;20216;-85
2022/07/02 06:02:16;;;;;;;10.30;9.70;;;42.10;45.30;;;;;;5008479;28;20204;-85
2022/07/02 06:04:42;;;;;;;9.50;9.10;;;40.70;44.90;;;;;;5025744;28;20556;-85
2022/07/02 06:09:51;;;;;;;7.90;7.50;;;36.90;48.20;;;;;;5033918;28;20252;-83
2022/07/02 06:12:17;;;;;;;7.70;7.30;;;37.00;50.70;;;;;;5024685;28;20444;-82
2022/07/02 06:14:43;;;;;;;7.13;6.43;;;37.20;49.90;;;;;;5008966;28;20696;-86
2022/07/02 06:17:09;;;;;;;6.90;6.60;;;37.40;50.00;;;;;;5013234;28;20729;-85
2022/07/02 06:19:35;;;;;;;7.60;7.10;;;37.30;49.20;;;;;;5022888;28;20194;-84
2022/07/02 06:22:00;;;;;;;7.60;7.20;;;38.10;48.80;;;;;;5014835;28;20448;-84
2022/07/02 06:24:26;;;;;;;7.67;7.10;;;;;;;;;;5005633;28;20235;-84
2022/07/02 06:26:52;;;;;;;8.00;7.57;;;40.10;45.70;;;;;;5005415;28;20299;-85
2022/07/02 06:29:18;;;;;;;8.20;7.80;;;;;;;;;;5013434;28;20476;-85
2022/07/02 06:31:43;;;;;;;9.13;8.83;;;41.20;43.20;;;;;;5007618;28;20184;-84
2022/07/02 06:34:08;;;;;;;8.00;7.70;;;40.40;43.20;;;;;;5009523;28;20982;-84
2022/07/02 06:36:34;;;;;;;7.90;7.50;;;;;;;;;;5009324;28;20452;-84
2022/07/02 06:39:00;;;;;;;7.37;7.07;;;38.30;45.60;;;;;;4998970;28;20474;-85
2022/07/02 06:44:10;;;;;;;7.30;6.60;;;37.40;47.00;;;;;;5004112;28;20197;-86
2022/07/02 06:46:36;;;;;;;6.13;5.83;;;36.70;48.00;;;;;;5000389;28;20442;-85
2022/07/02 06:49:02;;;;;;;5.20;4.80;;;35.50;49.50;;;;;;5011267;28;20705;-86
2022/07/02 06:51:27;;;;;;;4.73;4.43;;;33.90;52.00;;;;;;5004605;28;20175;-85
2022/07/02 06:53:59;;;;;;;4.80;3.70;;;34.00;53.50;;;;;;5015017;28;21001;-84
2022/07/02 06:56:26;;;;;;;3.73;3.53;;;32.60;53.70;;;;;;5002906;28;20296;-85
2022/07/02 06:58:52;;;;;;;3.17;2.87;;;31.80;56.60;;;;;;5001865;28;20551;-85
2022/07/02 07:01:17;;;;;;;2.83;2.50;;;31.80;57.20;;;;;;5007277;28;20531;-85
2022/07/02 07:03:43;;;;;;;3.43;2.87;;;33.20;57.10;;;;;;5008994;28;20183;-89
2022/07/02 07:06:14;;;;;;;2.70;2.23;;;32.80;56.20;;;;;;5022500;28;20191;-91
2022/07/02 07:08:40;;;;;;;5.13;2.40;;;32.30;54.90;;;;;;5011368;28;20745;-89
2022/07/02 07:11:06;;;;;;;3.30;2.67;;;32.30;55.40;;;;;;5005439;28;20545;-90
2022/07/02 07:13:32;;;;;;;4.63;3.10;;;32.10;56.00;;;;;;5020225;28;20178;-90
2022/07/02 07:15:57;;;;;;;2.77;2.10;;;32.00;56.80;;;;;;5017100;28;20422;-90
2022/07/02 07:18:23;;;;;;;2.10;2.00;;;33.90;55.90;;;;;;5011040;28;20622;-90
2022/07/02 07:20:50;;;;;;;10.07;4.47;;;32.90;55.70;;;;;;5001640;28;20218;-90
2022/07/02 07:23:16;;;;;;;3.03;2.90;;;;;;;;;;5008885;28;20203;-90
2022/07/02 07:25:41;;;;;;;5.83;3.00;;;33.50;51.70;;;;;;5010259;28;20436;-90
2022/07/02 07:28:08;;;;;;;4.10;2.77;;;32.40;53.60;;;;;;5002825;28;20867;-91
2022/07/02 07:30:34;;;;;;;3.20;3.00;;;32.40;55.00;;;;;;5027708;28;20200;-90
2022/07/02 07:32:59;;;;;;;3.47;3.27;;;32.60;53.70;;;;;;5020896;28;20425;-90
2022/07/02 07:35:25;;;;;;;3.47;3.20;;;31.30;53.30;;;;;;5043449;28;20176;-92
2022/07/02 07:38:00;;;;;;;3.70;3.37;;;32.50;54.90;;;;;;5041377;28;20186;-93
2022/07/02 07:40:26;;;;;;;2.60;2.40;;;32.30;55.50;;;;;;5023731;28;20265;-91
2022/07/02 07:42:52;;;;;;;3.80;3.50;;;33.00;54.40;;;;;;5008898;28;20438;-89
2022/07/02 07:45:18;;;;;;;4.90;3.77;;;34.30;54.80;;;;;;5009910;28;20464;-89
2022/07/02 07:47:44;;;;;;;5.00;4.60;;;35.40;50.40;;;;;;5020473;28;20220;-89
2022/07/02 07:50:09;;;;;;;4.23;4.03;;;35.00;50.80;;;;;;5010448;28;20210;-90
2022/07/02 07:52:35;;;;;;;4.50;3.53;;;34.50;50.20;;;;;;5047568;28;20185;-91
2022/07/02 07:55:00;;;;;;;3.60;3.40;;;32.60;54.30;;;;;;5026650;28;20901;-90
2022/07/02 07:57:26;;;;;;;4.20;3.90;;;33.90;53.60;;;;;;5011665;28;20206;-90
2022/07/02 07:59:51;;;;;;;3.50;3.30;;;33.30;53.50;;;;;;5007457;28;20847;-89
2022/07/02 08:02:17;;;;;;;3.83;3.53;;;33.60;53.40;;;;;;5013449;28;20190;-89
2022/07/02 08:04:42;;;;;;;4.07;3.77;;;34.30;53.90;;;;;;5003944;28;20183;-91
2022/07/02 08:07:08;;;;;;;3.70;3.50;;;34.30;51.70;;;;;;5005319;28;20514;-90
2022/07/02 08:09:34;;;;;;;4.30;4.00;;;34.30;52.30;;;;;;5004212;28;20833;-90
2022/07/02 08:11:59;;;;;;;4.00;3.77;;;33.70;50.60;;;;;;5012460;28;20186;-90
2022/07/02 08:14:25;;;;;;;4.43;4.23;;;33.90;53.60;;;;;;5025179;28;20181;-91
2022/07/02 08:16:51;;;;;;;4.73;4.43;;;33.90;49.20;;;;;;5021721;28;20182;-91
2022/07/02 08:19:16;;;;;;;4.80;4.50;;;33.20;49.70;;;;;;5010724;28;20280;-90
2022/07/02 08:21:42;;;;;;;4.17;3.87;;;33.20;50.40;;;;;;5015944;28;20224;-89
2022/07/02 08:24:08;;;;;;;3.77;3.57;;;33.70;51.90;;;;;;5011685;28;20221;-90
2022/07/02 08:26:33;;;;;;;4.80;4.33;;;34.00;50.30;;;;;;5046700;28;20179;-89
2022/07/02 08:29:00;;;;;;;4.90;4.50;;;33.90;51.10;;;;;;5022811;28;20231;-91
2022/07/02 08:31:26;;;;;;;5.00;4.70;;;34.20;47.10;;;;;;5017044;28;22176;-90
2022/07/02 08:33:52;;;;;;;6.10;5.10;;;34.20;47.70;;;;;;5010274;28;20524;-89
2022/07/02 08:36:18;;;;;;;7.10;4.43;;;33.50;48.70;;;;;;5010849;28;20270;-90
2022/07/02 08:38:44;;;;;;;4.50;4.30;;;;;;;;;;5011476;28;20433;-90
2022/07/02 08:41:12;;;;;;;7.63;4.50;;;33.30;47.30;;;;;;5008316;28;20444;-89
2022/07/02 08:43:40;;;;;;;4.47;4.07;;;33.50;50.60;;;;;;5017875;28;20852;-89
2022/07/02 08:46:09;;;;;;;4.40;4.20;;;33.60;49.30;;;;;;5020738;28;20448;-90
2022/07/02 08:48:37;;;;;;;4.80;4.37;;;33.00;50.00;;;;;;5007282;28;20487;-89
2022/07/02 08:51:03;;;;;;;6.30;4.20;;;;;;;;;;5016294;28;20466;-90
2022/07/02 08:53:29;;;;;;;4.20;4.00;;;;;;;;;;5022384;28;20528;-90
2022/07/02 08:55:55;;;;;;;9.03;4.20;;;32.40;50.90;;;;;;5026176;28;20478;-90
2022/07/02 08:58:23;;;;;;;4.63;4.23;;;32.20;48.40;;;;;;5010168;28;20449;-90
2022/07/02 09:00:49;;;;;;;4.87;4.57;;;32.00;45.70;;;;;;5022569;28;20551;-90
2022/07/02 09:03:31;;;;;;;4.30;4.10;;;31.50;47.00;;;;;;5038589;28;20495;-92
2022/07/02 09:05:57;;;;;;;4.40;4.20;;;31.00;45.60;;;;;;5042153;28;20444;-89
2022/07/02 09:08:23;;;;;;;4.50;4.20;;;31.00;46.10;;;;;;5040433;28;20464;-90
2022/07/02 09:10:52;;;;;;;4.10;3.90;;;31.30;48.60;;;;;;5001147;28;20487;-90
2022/07/02 09:13:18;;;;;;;4.00;3.80;;;32.10;49.60;;;;;;4999399;28;20437;-89
2022/07/02 09:15:44;;;;;;;4.90;4.40;;;31.80;51.40;;;;;;5014456;28;20447;-90
2022/07/02 09:18:11;;;;;;;5.40;5.20;;;32.90;48.10;;;;;;5020680;28;20501;-90
2022/07/02 09:20:37;;;;;;;5.20;5.00;;;33.70;47.70;;;;;;5020395;28;20936;-91
2022/07/02 09:23:09;;;;;;;5.40;5.13;;;34.10;46.20;;;;;;5027124;28;20434;-88
2022/07/02 09:25:34;;;;;;;5.27;4.83;;;33.50;46.20;;;;;;5018286;28;20439;-90
2022/07/02 09:28:06;;;;;;;4.90;4.60;;;33.60;47.20;;;;;;5011828;28;20540;-89
2022/07/02 09:30:35;;;;;;;6.70;5.17;;;33.60;44.10;;;;;;5010983;28;20209;-90
2022/07/02 09:35:46;;;;;;;5.30;5.00;;;33.10;44.90;;;;;;5009732;28;20452;-92
2022/07/02 09:38:12;;;;;;;5.50;5.20;;;;;;;;;;5012125;28;20448;-93
2022/07/02 09:41:01;;;;;;;5.70;5.40;;;33.50;43.90;;;;;;5016846;28;20464;-91
2022/07/02 09:43:32;;;;;;;4.90;4.70;;;32.30;46.60;;;;;;5008464;28;20537;-91
2022/07/02 09:45:59;;;;;;;5.00;4.80;;;32.30;46.70;;;;;;5020428;28;20452;-89
2022/07/02 09:48:26;;;;;;;5.40;5.20;;;32.70;47.30;;;;;;5011750;28;20466;-90
2022/07/02 09:50:55;;;;;;;6.00;5.70;;;33.50;46.30;;;;;;5018757;28;20467;-89
2022/07/02 09:53:21;;;;;;;5.70;5.30;;;34.70;45.60;;;;;;5007454;28;20435;-90
2022/07/02 09:55:49;;;;;;;6.30;6.00;;;36.30;45.40;;;;;;5015608;28;20501;-89
2022/07/02 09:58:26;;;;;;;7.97;7.57;;;36.50;41.40;;;;;;5012279;28;20446;-90
2022/07/02 10:00:54;;;;;;;7.67;7.37;;;36.40;42.10;;;;;;5007967;28;20538;-90
2022/07/02 10:03:20;;;;;;;8.00;7.47;;;35.80;41.60;;;;;;5009275;28;20509;-88
2022/07/02 10:05:50;;;;;;;7.63;6.30;;;34.40;41.30;;;;;;5007353;28;20454;-89
2022/07/02 10:08:17;;;;;;;6.97;6.00;;;33.60;43.20;;;;;;5012005;28;21412;-90
2022/07/02 10:10:43;;;;;;;5.90;5.60;;;32.90;44.90;;;;;;5014330;28;20477;-89
2022/07/02 10:13:12;;;;;;;5.97;5.67;;;32.60;43.90;;;;;;5016309;28;20574;-91
2022/07/02 10:15:42;;;;;;;5.30;5.10;;;31.60;44.40;;;;;;5017018;28;20976;-90
2022/07/02 10:18:09;;;;;;;5.37;5.07;;;30.70;44.80;;;;;;5018369;28;20656;-89
2022/07/02 10:20:35;;;;;;;5.17;4.97;;;31.10;46.80;;;;;;5019692;28;20461;-91
2022/07/02 10:23:05;;;;;;;5.00;4.70;;;31.00;46.00;;;;;;5021639;28;20469;-89
2022/07/02 10:25:32;;;;;;;4.83;4.53;;;29.90;45.60;;;;;;5035228;28;20444;-89
2022/07/02 10:28:00;;;;;;;4.50;4.30;;;29.50;47.80;;;;;;5039342;28;20442;-91
2022/07/02 10:30:33;;;;;;;4.50;4.10;;;29.40;46.40;;;;;;5028468;28;20986;-89
2022/07/02 10:36:36;;;;;;;4.33;3.97;;;29.70;48.20;;;;;;5036049;28;20461;-89
2022/07/02 10:39:03;;;;;;;3.70;3.50;;;30.30;46.00;;;;;;5036890;28;20596;-91
2022/07/02 10:41:30;;;;;;;1.83;1.73;;;29.60;49.30;;;;;;5012514;28;20441;-89
2022/07/02 10:43:57;;;;;;;2.57;2.10;;;27.80;49.40;;;;;;5027858;28;20494;-91
2022/07/02 10:46:28;;;;;;;1.90;1.80;;;26.60;52.90;;;;;;5019609;28;20538;-90
2022/07/02 10:48:57;;;;;;;2.47;2.27;;;26.30;54.80;;;;;;5017592;28;20846;-92
2022/07/02 10:51:26;;;;;;;2.10;1.60;;;25.90;55.80;;;;;;5011483;28;20500;-91
2022/07/02 10:53:57;;;;;;;3.07;2.07;;;25.70;57.10;;;;;;5022794;28;20440;-91
2022/07/02 10:56:23;;;;;;;2.00;1.50;;;25.70;57.90;;;;;;5026689;28;20512;-93
2022/07/02 10:58:49;;;;;;;4.23;1.47;;;25.80;56.00;;;;;;5043372;28;20413;-91
2022/07/02 11:01:19;;;;;;;1.40;1.30;;;25.50;55.70;;;;;;5022947;28;20478;-89
2022/07/02 11:03:57;;;;;;;1.00;0.90;;;25.40;57.10;;;;;;5019947;28;20464;-89
2022/07/02 11:06:27;;;;;;;2.40;1.00;;;25.40;59.00;;;;;;5020910;28;20484;-90
2022/07/02 11:09:05;;;;;;;1.67;1.20;;;25.30;57.00;;;;;;5029443;28;20467;-91
2022/07/02 11:11:40;;;;;;;1.30;1.00;;;25.30;55.70;;;;;;5059492;28;20448;-91
2022/07/02 11:14:15;;;;;;;2.20;1.10;;;25.10;57.80;;;;;;5047297;28;21117;-91
2022/07/02 11:16:50;;;;;;;1.30;1.20;;;25.10;58.90;;;;;;5031444;28;20447;-90
2022/07/02 11:19:24;;;;;;;1.47;0.90;;;25.00;57.30;;;;;;5033584;28;20464;-91
2022/07/02 11:21:58;;;;;;;1.23;1.00;;;25.10;59.10;;;;;;5022685;28;21415;-92
2022/07/02 11:24:26;;;;;;;1.93;0.80;;;25.20;57.00;;;;;;5033475;28;20445;-91
2022/07/02 11:26:53;;;;;;;2.60;1.20;;;25.30;56.60;;;;;;5031650;28;20452;-92
2022/07/02 11:29:18;;;;;;;1.03;0.87;;;25.40;58.80;;;;;;5023631;28;20477;-90
2022/07/02 11:31:46;;;;;;;1.30;0.77;;;25.60;56.70;;;;;;5039390;28;20948;-91
2022/07/02 11:34:18;;;;;;;0.97;0.80;;;25.60;57.90;;;;;;5019714;28;20197;-89
2022/07/02 11:36:44;;;;;;;1.30;1.00;;;25.40;58.60;;;;;;5028006;28;20537;-91
2022/07/02 11:39:19;;;;;;;1.50;1.10;;;25.40;58.00;;;;;;5020916;28;20591;-92
2022/07/02 11:41:46;;;;;;;1.20;1.10;;;25.40;58.30;;;;;;5028238;28;20470;-91
2022/07/02 11:44:20;;;;;;;3.40;1.23;;;25.60;56.30;;;;;;5017027;28;21340;-86
2022/07/02 11:46:52;;;;;;;10.43;1.03;;;25.50;54.90;;;;;;5002429;28;20436;-86
2022/07/02 11:49:21;;;;;;;2.10;0.93;;;25.60;56.30;;;;;;5029672;28;20482;-87
2022/07/02 11:51:49;;;;;;;1.10;1.00;;;25.60;54.40;;;;;;5022607;28;20539;-88
2022/07/02 11:54:15;;;;;;;0.90;0.80;;;25.60;55.60;;;;;;5027661;28;20440;-88
2022/07/02 11:56:43;;;;;;;1.27;0.97;;;25.60;54.90;;;;;;5025603;28;20520;-86
2022/07/02 11:59:11;;;;;;;1.73;1.00;;;25.50;55.90;;;;;;5026041;28;20448;-89
2022/07/02 12:01:39;;;;;;;1.33;0.90;;;25.60;55.80;;;;;;5038569;28;20449;-87
2022/07/02 12:04:08;;;;;;;1.00;0.77;;;25.60;56.50;;;;;;5056791;28;20571;-86
2022/07/02 12:06:39;;;;;;;1.50;0.90;;;25.70;57.10;;;;;;5033190;28;20430;-87
2022/07/02 12:09:07;;;;;;;1.40;1.10;;;25.90;56.00;;;;;;5039293;28;20473;-87
2022/07/02 12:11:39;;;;;;;2.20;1.07;;;26.10;57.20;;;;;;5021464;28;20455;-88
2022/07/02 12:14:07;;;;;;;1.83;0.90;;;26.20;54.60;;;;;;5025360;28;20442;-88
2022/07/02 12:16:34;;;;;;;1.67;1.10;;;26.20;56.40;;;;;;5022890;28;20440;-88
2022/07/02 12:19:10;;;;;;;6.93;1.37;;;26.00;56.00;;;;;;5021922;28;20454;-88
2022/07/02 12:21:41;;;;;;;1.90;0.90;;;26.00;55.20;;;;;;5036274;28;20527;-88
2022/07/02 12:24:21;;;;;;;1.00;0.90;;;25.80;57.20;;;;;;5029189;28;20442;-88
2022/07/02 12:26:48;;;;;;;5.87;1.10;;;25.60;56.60;;;;;;5020610;28;20444;-88
2022/07/02 12:32:08;;;;;;;1.40;1.20;;;25.60;58.00;;;;;;5026422;28;20440;-88
2022/07/02 12:34:43;;;;;;;1.57;1.00;;;25.60;58.00;;;;;;5043418;28;21004;-88
2022/07/02 12:37:21;;;;;;;2.20;1.67;;;25.70;57.70;;;;;;5023189;28;20432;-88
2022/07/02 12:39:48;;;;;;;1.00;0.80;;;25.80;57.30;;;;;;5026396;28;20812;-89
2022/07/02 12:42:23;;;;;;;1.60;1.40;;;25.90;54.80;;;;;;5025360;28;20942;-87
2022/07/02 12:45:00;;;;;;;1.93;0.80;;;26.00;55.50;;;;;;5023383;28;20467;-89
2022/07/02 12:47:35;;;;;;;1.63;1.17;;;26.00;54.80;;;;;;5027137;28;20450;-87
2022/07/02 12:50:09;;;;;;;2.93;1.20;;;26.20;57.70;;;;;;5035893;28;20470;-88
2022/07/02 12:52:52;;;;;;;3.20;1.10;;;26.40;58.20;;;;;;5026059;28;20449;-86
2022/07/02 12:55:26;;;;;;;1.20;0.87;;;26.40;56.30;;;;;;5027319;28;20410;-88
2022/07/02 12:57:53;;;;;;;1.30;0.90;;;26.40;55.80;;;;;;5024199;28;20442;-88
2022/07/02 13:00:18;;;;;;;5.03;0.90;;;26.50;56.00;;;;;;5038436;28;20441;-87
2022/07/02 13:02:44;;;;;;;0.97;0.80;;;26.50;56.00;;;;;;5025579;28;20940;-88
2022/07/02 13:05:09;;;;;;;1.40;1.10;;;26.60;57.30;;;;;;5036159;28;20181;-88
2022/07/02 13:07:35;;;;;;;3.53;0.90;;;26.80;55.50;;;;;;5034177;28;20180;-86